Time;durP1;ratioP1;P1;durP2;ratioP2;P2;SDS_P1;SDS_P2;PMS_P1;PMS_P2;Temp;Humidity;BMP_temperature;BMP_pressure;BME280_temperature;BME280_humidity;BME280_pressure;Samples;Min_cycle;Max_cycle;Signal;HPM_P1;HPM_P2
2022/06/29 00:02:07;;;;;;;1.88;1.77;;;;;;;;;;7386499;19;20133;-78
2022/06/29 00:04:33;;;;;;;2.42;1.83;;;;;;;;;;7390364;19;20443;-78
2022/06/29 00:06:58;;;;;;;4.00;1.90;;;;;;;;;;7391698;19;20007;-78
2022/06/29 00:09:26;;;;;;;2.58;2.38;;;;;;;;;;7393318;19;20072;-78
2022/06/29 00:11:52;;;;;;;3.45;2.13;;;;;;;;;;7387466;19;20493;-78
2022/06/29 00:14:17;;;;;;;4.28;1.95;;;;;;;;;;7392096;19;20007;-78
2022/06/29 00:16:43;;;;;;;3.08;2.13;;;;;;;;;;7391059;19;20010;-78
2022/06/29 00:19:08;;;;;;;2.78;2.20;;;;;;;;;;7393733;19;20394;-78
2022/06/29 00:21:34;;;;;;;2.00;1.83;;;;;;;;;;7390923;19;20472;-78
2022/06/29 00:23:59;;;;;;;6.10;2.28;;;;;;;;;;7399937;19;20039;-78
2022/06/29 00:26:25;;;;;;;5.22;2.35;;;;;;;;;;7403878;19;20026;-77
2022/06/29 00:28:51;;;;;;;5.32;2.20;;;;;;;;;;7403582;19;20042;-78
2022/06/29 00:31:16;;;;;;;3.35;2.50;;;;;;;;;;7403687;19;20002;-78
2022/06/29 00:33:42;;;;;;;4.93;1.80;;;;;;;;;;7402125;19;20021;-78
2022/06/29 00:36:07;;;;;;;3.28;2.08;;;;;;;;;;7403837;19;20010;-78
2022/06/29 00:38:32;;;;;;;5.50;2.33;;;;;;;;;;7392230;19;20338;-78
2022/06/29 00:40:58;;;;;;;2.10;1.90;;;;;;;;;;7393256;19;20083;-78
2022/06/29 00:43:24;;;;;;;1.75;1.65;;;;;;;;;;7393890;19;20338;-78
2022/06/29 00:45:50;;;;;;;2.92;1.67;;;;;;;;;;7389620;19;20456;-78
2022/06/29 00:48:16;;;;;;;5.13;2.22;;;;;;;;;;7392873;19;20006;-78
2022/06/29 00:50:44;;;;;;;3.78;2.80;;;;;;;;;;7390902;19;20023;-78
2022/06/29 00:53:14;;;;;;;2.40;2.20;;;;;;;;;;7392999;19;20006;-78
2022/06/29 00:55:42;;;;;;;4.53;2.88;;;;;;;;;;7389985;19;20026;-78
2022/06/29 00:58:10;;;;;;;3.45;2.30;;;;;;;;;;7391547;19;20474;-78
2022/06/29 01:00:35;;;;;;;4.80;2.83;;;;;;;;;;7392196;19;20070;-78
2022/06/29 01:03:01;;;;;;;4.55;2.65;;;;;;;;;;7392663;19;19998;-78
2022/06/29 01:05:28;;;;;;;3.25;2.30;;;;;;;;;;7384456;19;19999;-78
2022/06/29 01:07:54;;;;;;;3.83;2.50;;;;;;;;;;7389740;19;20098;-78
2022/06/29 01:10:20;;;;;;;3.65;2.30;;;;;;;;;;7390498;19;20014;-78
2022/06/29 01:12:52;;;;;;;3.95;2.55;;;;;;;;;;7391629;19;20003;-78
2022/06/29 01:15:21;;;;;;;4.57;2.90;;;;;;;;;;7388289;19;20030;-78
2022/06/29 01:17:46;;;;;;;3.25;2.95;;;;;;;;;;7390995;19;20010;-78
2022/06/29 01:20:13;;;;;;;2.58;2.38;;;;;;;;;;7386711;19;20045;-78
2022/06/29 01:22:39;;;;;;;4.88;2.50;;;;;;;;;;7390965;19;20361;-78
2022/06/29 01:25:05;;;;;;;3.78;2.67;;;;;;;;;;7394666;19;20011;-77
2022/06/29 01:27:30;;;;;;;4.70;2.47;;;;;;;;;;7398391;19;20015;-78
2022/06/29 01:29:56;;;;;;;5.65;3.00;;;;;;;;;;7395818;19;19999;-78
2022/06/29 01:32:22;;;;;;;4.05;2.60;;;;;;;;;;7398924;19;20016;-78
2022/06/29 01:34:48;;;;;;;5.65;3.05;;;;;;;;;;7395604;19;20017;-78
2022/06/29 01:37:13;;;;;;;5.13;2.60;;;;;;;;;;7398081;19;20105;-78
2022/06/29 01:39:39;;;;;;;4.82;3.60;;;;;;;;;;7396420;19;20680;-78
2022/06/29 01:42:06;;;;;;;4.80;3.05;;;;;;;;;;7398666;19;20011;-78
2022/06/29 01:44:31;;;;;;;4.30;2.85;;;;;;;;;;7395816;19;20006;-78
2022/06/29 01:46:57;;;;;;;5.88;3.30;;;;;;;;;;7399516;19;20001;-78
2022/06/29 01:49:23;;;;;;;4.30;3.65;;;;;;;;;;7397289;19;20077;-78
2022/06/29 01:51:49;;;;;;;6.05;3.30;;;;;;;;;;7398022;19;20031;-78
2022/06/29 01:54:14;;;;;;;6.60;3.47;;;;;;;;;;7392953;19;20010;-78
2022/06/29 01:56:39;;;;;;;5.65;3.35;;;;;;;;;;7398095;19;20369;-77
2022/06/29 01:59:05;;;;;;;5.18;2.80;;;;;;;;;;7398510;19;20024;-78
2022/06/29 02:01:30;;;;;;;3.75;3.00;;;;;;;;;;7396017;19;19998;-78
2022/06/29 02:03:55;;;;;;;4.70;3.22;;;;;;;;;;7396741;19;20089;-78
2022/06/29 02:06:23;;;;;;;5.57;3.08;;;;;;;;;;7396014;19;19999;-78
2022/06/29 02:08:48;;;;;;;7.30;3.25;;;;;;;;;;7396272;19;20082;-78
2022/06/29 02:11:14;;;;;;;5.20;3.65;;;;;;;;;;7398349;19;20356;-78
2022/06/29 02:13:39;;;;;;;4.65;3.10;;;;;;;;;;7395155;19;20006;-78
2022/06/29 02:16:04;;;;;;;5.97;4.82;;;;;;;;;;7398063;19;20054;-78
2022/06/29 02:18:30;;;;;;;5.57;3.30;;;;;;;;;;7395111;19;20033;-78
2022/06/29 02:20:55;;;;;;;3.83;2.92;;;;;;;;;;7397246;19;19999;-78
2022/06/29 02:23:21;;;;;;;3.97;3.30;;;;;;;;;;7397042;19;20091;-78
2022/06/29 02:25:47;;;;;;;5.45;2.90;;;;;;;;;;7395785;19;20010;-78
2022/06/29 02:28:13;;;;;;;3.15;2.85;;;;;;;;;;7396892;19;20010;-78
2022/06/29 02:36:06;;;;;;;3.67;3.08;;;;;;;;;;7395465;19;20046;-78
2022/06/29 02:38:31;;;;;;;3.67;3.28;;;;;;;;;;7394620;19;20042;-78
2022/06/29 02:40:57;;;;;;;3.30;3.00;;;;;;;;;;7397055;19;20002;-78
2022/06/29 02:43:22;;;;;;;5.05;3.30;;;;;;;;;;7396256;19;20007;-78
2022/06/29 02:45:47;;;;;;;5.70;3.65;;;;;;;;;;7391447;19;20006;-78
2022/06/29 02:48:13;;;;;;;7.03;3.70;;;;;;;;;;7397237;19;19999;-78
2022/06/29 02:50:38;;;;;;;5.63;3.25;;;;;;;;;;7391799;19;19998;-78
2022/06/29 02:53:04;;;;;;;9.52;6.05;;;;;;;;;;7396153;19;20425;-78
2022/06/29 02:55:29;;;;;;;5.25;3.08;;;;;;;;;;7394844;19;22265;-78
2022/06/29 02:57:54;;;;;;;4.38;3.38;;;;;;;;;;7397357;19;20006;-78
2022/06/29 03:00:20;;;;;;;4.60;2.88;;;;;;;;;;7396500;19;19995;-78
2022/06/29 03:02:45;;;;;;;4.22;3.42;;;;;;;;;;7393488;19;20010;-78
2022/06/29 03:05:11;;;;;;;4.53;3.05;;;;;;;;;;7391033;19;20127;-78
2022/06/29 03:07:37;;;;;;;4.53;3.13;;;;;;;;;;7395519;19;20006;-78
2022/06/29 03:10:02;;;;;;;6.18;2.88;;;;;;;;;;7396500;19;20058;-78
2022/06/29 03:12:28;;;;;;;3.88;3.40;;;;;;;;;;7395104;19;20473;-78
2022/06/29 03:14:53;;;;;;;7.70;3.88;;;;;;;;;;7393751;19;20031;-78
2022/06/29 03:17:19;;;;;;;4.95;3.10;;;;;;;;;;7394851;19;20006;-78
2022/06/29 03:19:44;;;;;;;5.45;3.22;;;;;;;;;;7394847;19;20018;-78
2022/06/29 03:22:09;;;;;;;6.25;3.28;;;;;;;;;;7393635;19;20010;-78
2022/06/29 03:24:35;;;;;;;9.70;5.15;;;;;;;;;;7393273;19;20006;-77
2022/06/29 03:27:00;;;;;;;5.47;3.58;;;;;;;;;;7390628;19;20005;-77
2022/06/29 03:29:25;;;;;;;5.97;3.75;;;;;;;;;;7392714;19;21082;-77
2022/06/29 03:31:51;;;;;;;7.10;3.75;;;;;;;;;;7396100;19;20029;-77
2022/06/29 03:34:17;;;;;;;6.53;3.63;;;;;;;;;;7390031;19;20031;-76
2022/06/29 03:36:42;;;;;;;5.63;3.88;;;;;;;;;;7395194;19;20019;-77
2022/06/29 03:39:08;;;;;;;4.95;3.40;;;;;;;;;;7392088;19;20005;-77
2022/06/29 03:41:33;;;;;;;5.15;3.42;;;;;;;;;;7393098;19;20121;-78
2022/06/29 03:43:58;;;;;;;3.75;3.35;;;;;;;;;;7394502;19;20118;-78
2022/06/29 03:46:24;;;;;;;10.32;4.00;;;;;;;;;;7394887;19;20016;-78
2022/06/29 03:48:49;;;;;;;3.85;3.38;;;;;;;;;;7393110;19;20002;-78
2022/06/29 03:51:15;;;;;;;4.97;3.45;;;;;;;;;;7393431;19;20509;-78
2022/06/29 03:53:40;;;;;;;6.93;3.90;;;;;;;;;;7392648;19;20041;-78
2022/06/29 03:56:06;;;;;;;9.48;3.67;;;;;;;;;;7395624;19;20014;-78
2022/06/29 03:58:31;;;;;;;6.18;3.85;;;;;;;;;;7393326;19;20375;-78
2022/06/29 04:00:57;;;;;;;5.28;4.00;;;;;;;;;;7395599;19;20718;-78
2022/06/29 04:03:22;;;;;;;6.43;3.55;;;;;;;;;;7392178;19;20011;-78
2022/06/29 04:05:47;;;;;;;6.97;3.75;;;;;;;;;;7393968;19;20082;-78
2022/06/29 04:08:12;;;;;;;4.97;3.40;;;;;;;;;;7393216;19;20002;-78
2022/06/29 04:10:38;;;;;;;4.95;4.03;;;;;;;;;;7390981;19;20007;-78
2022/06/29 04:13:03;;;;;;;5.90;3.42;;;;;;;;;;7392518;19;20018;-78
2022/06/29 04:15:29;;;;;;;9.68;3.80;;;;;;;;;;7393195;19;20010;-78
2022/06/29 04:17:54;;;;;;;6.03;4.25;;;;;;;;;;7393296;19;20013;-78
2022/06/29 04:23:03;;;;;;;7.55;4.63;;;;;;;;;;7390176;19;20014;-77
2022/06/29 04:25:29;;;;;;;6.82;4.95;;;;;;;;;;7391612;19;19998;-77
2022/06/29 04:27:54;;;;;;;5.50;4.85;;;;;;;;;;7389830;19;20013;-77
2022/06/29 04:30:20;;;;;;;6.90;4.07;;;;;;;;;;7391781;19;20010;-78
2022/06/29 04:32:45;;;;;;;13.98;4.45;;;;;;;;;;7391116;19;20019;-78
2022/06/29 04:35:11;;;;;;;7.20;4.03;;;;;;;;;;7391214;19;20400;-78
2022/06/29 04:37:37;;;;;;;6.22;4.03;;;;;;;;;;7391806;19;20006;-79
2022/06/29 04:40:03;;;;;;;6.20;4.13;;;;;;;;;;7393103;19;20496;-78
2022/06/29 04:42:29;;;;;;;6.10;4.43;;;;;;;;;;7394231;19;20014;-78
2022/06/29 04:44:54;;;;;;;5.57;4.15;;;;;;;;;;7391572;19;20013;-79
2022/06/29 04:47:19;;;;;;;6.10;4.38;;;;;;;;;;7393019;19;20003;-78
2022/06/29 04:49:45;;;;;;;4.65;3.88;;;;;;;;;;7392281;19;20023;-78
2022/06/29 04:52:10;;;;;;;6.72;3.92;;;;;;;;;;7393008;19;19990;-77
2022/06/29 04:54:35;;;;;;;5.18;3.80;;;;;;;;;;7392570;19;20002;-78
2022/06/29 04:57:01;;;;;;;7.05;3.80;;;;;;;;;;7393213;19;20014;-78
2022/06/29 04:59:26;;;;;;;5.07;3.55;;;;;;;;;;7392088;19;20009;-78
2022/06/29 05:01:52;;;;;;;8.93;4.03;;;;;;;;;;7393983;19;19994;-77
2022/06/29 05:04:17;;;;;;;3.90;3.20;;;;;;;;;;7392236;19;20554;-78
2022/06/29 05:06:43;;;;;;;5.72;3.22;;;;;;;;;;7390209;19;20010;-78
2022/06/29 05:09:08;;;;;;;6.72;3.13;;;;;;;;;;7392064;19;20015;-78
2022/06/29 05:11:34;;;;;;;8.90;3.33;;;;;;;;;;7392962;19;20003;-77
2022/06/29 05:14:00;;;;;;;8.15;3.88;;;;;;;;;;7390747;19;20442;-77
2022/06/29 05:16:25;;;;;;;3.72;2.33;;;;;;;;;;7391016;19;20343;-78
2022/06/29 05:18:50;;;;;;;4.60;3.17;;;;;;;;;;7391730;19;20006;-78
2022/06/29 05:21:18;;;;;;;6.22;3.28;;;;;;;;;;7384838;19;21265;-78
2022/06/29 05:23:44;;;;;;;5.68;3.35;;;;;;;;;;7389716;19;20022;-78
2022/06/29 05:26:10;;;;;;;6.47;3.55;;;;;;;;;;7391084;19;20502;-79
2022/06/29 05:28:35;;;;;;;6.03;3.22;;;;;;;;;;7388598;19;20007;-78
2022/06/29 05:31:00;;;;;;;5.78;3.22;;;;;;;;;;7392576;19;20077;-77
2022/06/29 05:33:26;;;;;;;3.80;2.40;;;;;;;;;;7391449;19;20047;-78
2022/06/29 05:35:52;;;;;;;6.28;2.85;;;;;;;;;;7385847;19;20512;-78
2022/06/29 05:38:19;;;;;;;2.42;2.05;;;;;;;;;;7393553;19;20018;-78
2022/06/29 05:40:44;;;;;;;4.60;2.70;;;;;;;;;;7393960;19;20414;-78
2022/06/29 05:43:10;;;;;;;4.75;3.20;;;;;;;;;;7393434;19;20827;-78
2022/06/29 05:45:35;;;;;;;3.72;3.08;;;;;;;;;;7390139;19;20101;-77
2022/06/29 05:48:00;;;;;;;4.43;3.33;;;;;;;;;;7391120;19;20010;-78
2022/06/29 05:50:26;;;;;;;5.40;3.25;;;;;;;;;;7387328;19;20021;-78
2022/06/29 05:52:51;;;;;;;3.65;2.60;;;;;;;;;;7394282;19;20006;-77
2022/06/29 05:55:17;;;;;;;4.25;3.05;;;;;;;;;;7388223;19;20037;-77
2022/06/29 05:57:43;;;;;;;4.10;2.80;;;;;;;;;;7394006;19;20574;-77
2022/06/29 06:00:10;;;;;;;10.63;2.70;;;;;;;;;;7391856;19;20021;-77
2022/06/29 06:02:35;;;;;;;6.10;2.40;;;;;;;;;;7393624;19;19994;-77
2022/06/29 06:05:01;;;;;;;5.50;2.28;;;;;;;;;;7390851;19;20017;-77
2022/06/29 06:07:26;;;;;;;4.20;2.75;;;;;;;;;;7390251;19;20015;-78
2022/06/29 06:09:52;;;;;;;3.03;2.17;;;;;;;;;;7394229;19;20022;-77
2022/06/29 06:12:17;;;;;;;4.28;2.53;;;;;;;;;;7402725;19;20014;-77
2022/06/29 06:14:43;;;;;;;6.55;3.28;;;;;;;;;;7396200;19;20500;-77
2022/06/29 06:17:08;;;;;;;5.00;2.80;;;;;;;;;;7393287;19;20034;-78
2022/06/29 06:19:34;;;;;;;4.60;3.00;;;;;;;;;;7400819;19;20462;-78
2022/06/29 06:21:59;;;;;;;4.20;3.10;;;;;;;;;;7400337;19;20014;-77
2022/06/29 06:24:24;;;;;;;4.18;3.22;;;;;;;;;;7397715;19;20367;-77
2022/06/29 06:26:50;;;;;;;5.05;3.33;;;;;;;;;;7403338;19;20709;-77
2022/06/29 06:29:15;;;;;;;6.93;2.83;;;;;;;;;;7398529;19;20023;-77
2022/06/29 06:31:40;;;;;;;7.97;3.15;;;;;;;;;;7402297;19;20465;-77
2022/06/29 06:34:06;;;;;;;5.10;3.10;;;;;;;;;;7396684;19;20448;-77
2022/06/29 06:36:31;;;;;;;3.88;3.47;;;;;;;;;;7398680;19;20062;-77
2022/06/29 06:38:56;;;;;;;5.70;3.40;;;;;;;;;;7398308;19;20010;-78
2022/06/29 06:41:22;;;;;;;6.40;3.22;;;;;;;;;;7403601;19;20038;-78
2022/06/29 06:43:52;;;;;;;6.85;3.55;;;;;;;;;;7403397;19;20003;-78
2022/06/29 06:46:18;;;;;;;8.43;3.90;;;;;;;;;;7397556;19;20014;-77
2022/06/29 06:48:44;;;;;;;4.00;3.50;;;;;;;;;;7402520;19;20006;-77
2022/06/29 06:51:10;;;;;;;4.55;3.40;;;;;;;;;;7398415;19;20127;-77
2022/06/29 06:53:36;;;;;;;4.55;3.30;;;;;;;;;;7402143;19;20385;-77
2022/06/29 06:56:02;;;;;;;5.38;3.50;;;;;;;;;;7398583;19;20022;-77
2022/06/29 06:58:27;;;;;;;4.00;3.00;;;;;;;;;;7396417;19;20018;-77
2022/06/29 07:00:52;;;;;;;4.32;3.90;;;;;;;;;;7398753;19;20011;-77
2022/06/29 07:03:18;;;;;;;6.47;4.10;;;;;;;;;;7399133;19;19999;-77
2022/06/29 07:05:43;;;;;;;6.47;4.05;;;;;;;;;;7399515;19;20003;-77
2022/06/29 07:08:08;;;;;;;6.57;4.20;;;;;;;;;;7400870;19;20034;-77
2022/06/29 07:10:34;;;;;;;6.18;4.10;;;;;;;;;;7400672;19;20369;-78
2022/06/29 07:12:59;;;;;;;5.85;3.97;;;;;;;;;;7399727;19;20553;-77
2022/06/29 07:15:24;;;;;;;4.95;3.88;;;;;;;;;;7401593;19;19998;-78
2022/06/29 07:17:50;;;;;;;7.97;4.15;;;;;;;;;;7397821;19;20729;-77
2022/06/29 07:20:15;;;;;;;5.25;3.40;;;;;;;;;;7399826;19;20060;-77
2022/06/29 07:22:40;;;;;;;4.45;3.63;;;;;;;;;;7397697;19;20006;-78
2022/06/29 07:25:06;;;;;;;5.13;3.20;;;;;;;;;;7400016;19;20046;-78
2022/06/29 07:27:31;;;;;;;4.85;3.50;;;;;;;;;;7400932;19;20039;-77
2022/06/29 07:29:57;;;;;;;4.82;3.22;;;;;;;;;;7400215;19;20006;-77
2022/06/29 07:32:22;;;;;;;3.17;2.47;;;;;;;;;;7398079;19;20002;-77
2022/06/29 07:34:47;;;;;;;4.28;2.95;;;;;;;;;;7401274;19;20074;-78
2022/06/29 07:37:13;;;;;;;3.15;2.63;;;;;;;;;;7397690;19;20043;-78
2022/06/29 07:39:39;;;;;;;3.90;2.40;;;;;;;;;;7397387;19;20010;-78
2022/06/29 07:42:04;;;;;;;4.18;2.80;;;;;;;;;;7401814;19;20036;-78
2022/06/29 07:44:31;;;;;;;6.65;2.25;;;;;;;;;;7398582;19;20009;-78
2022/06/29 07:46:57;;;;;;;6.15;3.13;;;;;;;;;;7394257;19;20006;-79
2022/06/29 07:49:23;;;;;;;2.88;2.50;;;;;;;;;;7394758;19;20019;-80
2022/06/29 07:51:49;;;;;;;6.47;2.92;;;;;;;;;;7402995;19;20014;-79
2022/06/29 07:54:14;;;;;;;3.25;2.75;;;;;;;;;;7392696;19;20038;-79
2022/06/29 07:56:40;;;;;;;4.88;2.28;;;;;;;;;;7402484;19;20579;-79
2022/06/29 07:59:05;;;;;;;3.67;2.95;;;;;;;;;;7397091;19;20078;-78
2022/06/29 08:01:31;;;;;;;3.08;2.33;;;;;;;;;;7398576;19;20066;-78
2022/06/29 08:03:56;;;;;;;3.30;2.75;;;;;;;;;;7397029;19;20078;-80
2022/06/29 08:06:23;;;;;;;3.65;2.40;;;;;;;;;;7397950;19;20513;-78
2022/06/29 08:08:49;;;;;;;3.72;2.50;;;;;;;;;;7400136;19;20011;-79
2022/06/29 08:11:14;;;;;;;3.60;2.90;;;;;;;;;;7391097;19;20025;-79
2022/06/29 08:13:41;;;;;;;3.15;2.50;;;;;;;;;;7397382;19;20010;-79
2022/06/29 08:16:09;;;;;;;3.22;2.55;;;;;;;;;;7401396;19;20477;-79
2022/06/29 08:18:37;;;;;;;3.30;2.67;;;;;;;;;;7395681;19;20022;-79
2022/06/29 08:21:03;;;;;;;2.72;2.50;;;;;;;;;;7393461;19;20017;-78
2022/06/29 08:23:30;;;;;;;3.45;2.47;;;;;;;;;;7399414;19;20010;-78
2022/06/29 08:25:56;;;;;;;3.83;2.95;;;;;;;;;;7402181;19;20015;-78
2022/06/29 08:28:22;;;;;;;6.03;2.78;;;;;;;;;;7419344;19;20018;-79
2022/06/29 08:30:48;;;;;;;2.45;2.05;;;;;;;;;;7421524;19;20006;-79
2022/06/29 08:33:13;;;;;;;3.33;2.45;;;;;;;;;;7421252;19;19998;-79
2022/06/29 08:35:39;;;;;;;2.53;2.13;;;;;;;;;;7423195;19;20010;-79
2022/06/29 08:38:05;;;;;;;6.28;2.50;;;;;;;;;;7416308;19;20006;-79
2022/06/29 08:40:44;;;;;;;4.38;2.03;;;;;;;;;;7410955;19;20002;-79
2022/06/29 08:43:17;;;;;;;3.92;2.08;;;;;;;;;;7398274;19;20446;-79
2022/06/29 08:45:45;;;;;;;4.45;2.20;;;;;;;;;;7398054;19;20046;-80
2022/06/29 08:48:11;;;;;;;2.03;1.83;;;;;;;;;;7397405;19;20009;-80
2022/06/29 08:50:49;;;;;;;2.90;2.13;;;;;;;;;;7398272;19;20018;-79
2022/06/29 08:53:15;;;;;;;2.42;1.98;;;;;;;;;;7403073;19;20017;-80
2022/06/29 08:55:44;;;;;;;4.78;2.30;;;;;;;;;;7391625;19;20024;-79
2022/06/29 08:58:14;;;;;;;5.90;2.35;;;;;;;;;;7397155;19;20064;-78
2022/06/29 09:00:39;;;;;;;3.88;2.05;;;;;;;;;;7399934;19;20488;-79
2022/06/29 09:03:05;;;;;;;2.63;2.10;;;;;;;;;;7396932;19;19999;-79
2022/06/29 09:05:32;;;;;;;3.92;2.05;;;;;;;;;;7391292;19;20121;-80
2022/06/29 09:07:57;;;;;;;3.25;1.95;;;;;;;;;;7399972;19;20488;-80
2022/06/29 09:10:24;;;;;;;2.28;1.65;;;;;;;;;;7397303;19;20082;-79
2022/06/29 09:12:52;;;;;;;2.70;1.88;;;;;;;;;;7397212;19;20025;-80
2022/06/29 09:15:31;;;;;;;2.53;2.00;;;;;;;;;;7394489;19;20449;-80
2022/06/29 09:17:56;;;;;;;3.22;2.15;;;;;;;;;;7397721;19;20007;-80
2022/06/29 09:20:21;;;;;;;4.13;2.20;;;;;;;;;;7399117;19;20006;-80
2022/06/29 09:22:53;;;;;;;2.95;2.38;;;;;;;;;;7398369;19;20026;-80
2022/06/29 09:25:26;;;;;;;2.97;2.05;;;;;;;;;;7399428;19;20015;-79
2022/06/29 09:27:55;;;;;;;3.10;2.00;;;;;;;;;;7394756;19;20658;-79
2022/06/29 09:30:35;;;;;;;2.97;1.60;;;;;;;;;;7394507;19;20027;-79
2022/06/29 09:33:09;;;;;;;2.30;1.90;;;;;;;;;;7394869;19;20018;-79
2022/06/29 09:36:17;;;;;;;3.35;2.00;;;;;;;;;;7395076;19;20006;-80
2022/06/29 09:38:43;;;;;;;4.70;2.20;;;;;;;;;;7394872;19;20335;-80
2022/06/29 09:41:09;;;;;;;2.88;2.28;;;;;;;;;;7400075;19;20462;-79
2022/06/29 09:43:37;;;;;;;4.97;2.20;;;;;;;;;;7389783;19;20010;-80
2022/06/29 09:46:03;;;;;;;3.15;2.15;;;;;;;;;;7406429;19;19999;-80
2022/06/29 09:48:31;;;;;;;5.20;2.40;;;;;;;;;;7404976;19;20026;-81
2022/06/29 09:50:57;;;;;;;2.80;2.20;;;;;;;;;;7398486;19;20370;-81
2022/06/29 09:53:36;;;;;;;4.82;2.08;;;;;;;;;;7351296;19;20529;-78
2022/06/29 09:56:04;;;;;;;3.47;2.47;;;;;;;;;;7395958;19;20015;-78
2022/06/29 09:58:41;;;;;;;9.98;2.38;;;;;;;;;;7395958;19;20494;-80
2022/06/29 10:03:54;;;;;;;2.90;1.92;;;;;;;;;;7402673;19;20072;-81
2022/06/29 10:06:21;;;;;;;5.05;2.30;;;;;;;;;;7401283;19;20013;-80
2022/06/29 10:08:46;;;;;;;4.20;2.20;;;;;;;;;;7402791;19;20036;-80
2022/06/29 10:14:43;;;;;;;3.70;2.25;;;;;;;;;;7404095;19;20038;-80
2022/06/29 10:17:26;;;;;;;3.10;2.08;;;;;;;;;;7399860;19;20120;-80
2022/06/29 10:20:10;;;;;;;2.65;1.67;;;;;;;;;;7402012;19;20072;-80
2022/06/29 10:22:36;;;;;;;3.55;2.22;;;;;;;;;;7393512;19;20388;-80
2022/06/29 10:25:03;;;;;;;3.03;2.13;;;;;;;;;;7407777;19;20006;-80
2022/06/29 10:27:28;;;;;;;2.88;2.00;;;;;;;;;;7404748;19;20307;-80
2022/06/29 10:30:24;;;;;;;3.03;1.67;;;;;;;;;;7392564;19;20070;-80
2022/06/29 10:32:50;;;;;;;;;;;;;;;;;;7403209;19;20138;-80
2022/06/29 10:35:16;;;;;;;3.45;2.30;;;;;;;;;;7398893;19;20347;-80
2022/06/29 10:37:50;;;;;;;2.20;1.90;;;;;;;;;;7402155;19;20013;-80
2022/06/29 10:40:17;;;;;;;;;;;;;;;;;;7399735;19;20576;-80
2022/06/29 10:45:47;;;;;;;5.07;1.92;;;;;;;;;;7397652;19;20086;-80
2022/06/29 10:48:14;;;;;;;2.40;2.00;;;;;;;;;;7398162;19;20032;-79
2022/06/29 10:50:41;;;;;;;3.65;2.10;;;;;;;;;;7396960;19;20003;-81
2022/06/29 10:53:09;;;;;;;4.43;2.35;;;;;;;;;;7397822;19;20018;-81
2022/06/29 10:55:38;;;;;;;2.65;2.08;;;;;;;;;;7389700;19;20011;-81
2022/06/29 10:58:04;;;;;;;3.33;2.40;;;;;;;;;;7392655;19;20014;-80
2022/06/29 11:00:33;;;;;;;4.35;1.63;;;;;;;;;;7394712;19;20046;-81
2022/06/29 11:03:06;;;;;;;2.40;1.88;;;;;;;;;;7396410;19;20014;-81
2022/06/29 11:05:33;;;;;;;2.10;1.90;;;;;;;;;;7394088;19;20040;-82
2022/06/29 11:13:29;;;;;;;2.03;1.83;;;;;;;;;;7396828;19;20018;-81
2022/06/29 11:15:59;;;;;;;2.65;1.70;;;;;;;;;;7391859;19;20006;-79
2022/06/29 11:18:53;;;;;;;4.32;2.38;;;;;;;;;;7392762;19;20006;-79
2022/06/29 11:21:19;;;;;;;3.17;2.30;;;;;;;;;;7393752;19;20373;-79
2022/06/29 11:23:55;;;;;;;4.20;2.67;;;;;;;;;;7396509;19;20007;-79
2022/06/29 11:26:23;;;;;;;3.75;2.20;;;;;;;;;;7397697;19;20031;-79
2022/06/29 11:28:49;;;;;;;3.00;2.28;;;;;;;;;;7391864;19;20050;-77
2022/06/29 11:31:14;;;;;;;3.53;2.00;;;;;;;;;;7393642;19;20003;-78
2022/06/29 11:33:47;;;;;;;2.95;2.17;;;;;;;;;;7392195;19;20010;-77
2022/06/29 11:36:16;;;;;;;5.32;1.90;;;;;;;;;;7393045;19;20014;-80
2022/06/29 11:38:43;;;;;;;2.53;1.83;;;;;;;;;;7395425;19;20010;-77
2022/06/29 11:41:26;;;;;;;3.75;1.92;;;;;;;;;;7394120;19;20018;-77
2022/06/29 11:44:04;;;;;;;5.55;2.25;;;;;;;;;;7389587;19;20506;-77
2022/06/29 11:46:32;;;;;;;2.42;1.95;;;;;;;;;;7390910;19;20006;-78
2022/06/29 11:51:53;;;;;;;3.10;2.10;;;;;;;;;;7388905;19;20016;-77
2022/06/29 11:54:46;;;;;;;3.90;2.10;;;;;;;;;;7394116;19;20025;-77
2022/06/29 11:57:17;;;;;;;4.47;2.13;;;;;;;;;;7390722;19;20010;-77
2022/06/29 11:59:44;;;;;;;2.15;1.95;;;;;;;;;;7387515;19;20573;-77
2022/06/29 12:02:13;;;;;;;2.70;1.73;;;;;;;;;;7393441;19;20018;-77
2022/06/29 12:04:40;;;;;;;4.15;2.05;;;;;;;;;;7385412;19;20459;-78
2022/06/29 12:07:11;;;;;;;3.67;2.00;;;;;;;;;;7393833;19;20003;-77
2022/06/29 12:09:45;;;;;;;4.18;1.70;;;;;;;;;;7392136;19;20010;-77
2022/06/29 12:12:12;;;;;;;2.07;1.73;;;;;;;;;;7391414;19;20003;-77
2022/06/29 12:14:39;;;;;;;2.45;1.90;;;;;;;;;;7393028;19;20021;-77
2022/06/29 12:17:05;;;;;;;1.88;1.63;;;;;;;;;;7392453;19;20026;-77
2022/06/29 12:19:31;;;;;;;2.20;1.73;;;;;;;;;;7392811;19;20015;-77
2022/06/29 12:21:57;;;;;;;3.17;1.58;;;;;;;;;;7391814;19;20011;-77
2022/06/29 12:24:24;;;;;;;3.88;1.83;;;;;;;;;;7391004;19;20013;-77
2022/06/29 12:26:49;;;;;;;2.65;2.15;;;;;;;;;;7393627;19;20002;-77
2022/06/29 12:29:15;;;;;;;3.40;2.45;;;;;;;;;;7390756;19;20065;-76
2022/06/29 12:31:42;;;;;;;4.63;1.90;;;;;;;;;;7389276;19;19999;-77
2022/06/29 12:34:07;;;;;;;3.63;2.13;;;;;;;;;;7389783;19;20306;-77
2022/06/29 12:36:33;;;;;;;3.00;2.50;;;;;;;;;;7391804;19;20490;-77
2022/06/29 12:38:59;;;;;;;5.50;2.00;;;;;;;;;;7389328;19;20014;-77
2022/06/29 12:41:24;;;;;;;3.65;2.10;;;;;;;;;;7387903;19;20414;-77
2022/06/29 12:43:50;;;;;;;2.88;1.60;;;;;;;;;;7392370;19;20014;-77
2022/06/29 12:46:15;;;;;;;2.85;1.67;;;;;;;;;;7392366;19;20415;-77
2022/06/29 12:48:40;;;;;;;2.88;1.83;;;;;;;;;;7388305;19;20007;-77
2022/06/29 12:51:07;;;;;;;4.03;2.00;;;;;;;;;;7390228;19;20014;-77
2022/06/29 12:53:41;;;;;;;2.35;1.73;;;;;;;;;;7388917;19;20010;-77
2022/06/29 12:56:07;;;;;;;;;;;;;;;;;;7390458;19;19995;-76
2022/06/29 12:58:32;;;;;;;3.30;1.90;;;;;;;;;;7387928;19;19918;-77
2022/06/29 13:00:58;;;;;;;2.08;1.73;;;;;;;;;;7389583;19;20465;-77
2022/06/29 13:03:24;;;;;;;2.10;1.55;;;;;;;;;;7388107;19;20430;-77
2022/06/29 13:05:49;;;;;;;3.15;1.60;;;;;;;;;;7388961;19;20022;-77
2022/06/29 13:08:15;;;;;;;3.20;1.80;;;;;;;;;;7388870;19;20358;-77
2022/06/29 13:10:41;;;;;;;2.45;1.92;;;;;;;;;;7390744;19;20462;-77
2022/06/29 13:13:06;;;;;;;1.70;1.60;;;;;;;;;;7386803;19;20017;-79
2022/06/29 13:15:45;;;;;;;3.28;1.63;;;;;;;;;;7389391;19;20082;-76
2022/06/29 13:19:06;;;;;;;1.85;1.55;;;;;;;;;;7387647;19;20541;-77
2022/06/29 13:21:51;;;;;;;2.67;1.65;;;;;;;;;;7386813;19;20014;-77
2022/06/29 13:24:18;;;;;;;4.43;1.70;;;;;;;;;;7389810;19;20010;-77
2022/06/29 13:26:43;;;;;;;1.60;1.35;;;;;;;;;;7390414;19;20014;-77
2022/06/29 13:29:09;;;;;;;4.85;1.80;;;;;;;;;;7390297;19;20006;-77
2022/06/29 13:31:37;;;;;;;2.20;1.58;;;;;;;;;;7387626;19;20006;-77
2022/06/29 13:34:02;;;;;;;3.42;1.55;;;;;;;;;;7390839;19;20006;-77
2022/06/29 13:36:28;;;;;;;2.42;1.30;;;;;;;;;;7385771;19;20013;-77
2022/06/29 13:38:53;;;;;;;3.35;1.50;;;;;;;;;;7389965;19;20003;-76
2022/06/29 13:41:20;;;;;;;2.22;1.63;;;;;;;;;;7387717;19;20011;-77
2022/06/29 13:43:45;;;;;;;3.55;1.48;;;;;;;;;;7388590;19;20007;-76
2022/06/29 13:46:20;;;;;;;2.40;1.48;;;;;;;;;;7396353;19;20376;-80
2022/06/29 13:52:02;;;;;;;1.65;1.40;;;;;;;;;;7387429;19;20280;-78
2022/06/29 13:54:27;;;;;;;2.35;1.58;;;;;;;;;;7392961;19;20023;-78
2022/06/29 13:56:53;;;;;;;2.90;1.60;;;;;;;;;;7392075;19;20010;-79
2022/06/29 13:59:18;;;;;;;3.25;1.58;;;;;;;;;;7387138;19;20929;-82
2022/06/29 14:01:44;;;;;;;4.88;1.70;;;;;;;;;;7392525;19;20299;-80
2022/06/29 14:04:09;;;;;;;2.08;1.52;;;;;;;;;;7390356;19;20007;-80
2022/06/29 14:06:35;;;;;;;2.38;1.67;;;;;;;;;;7391931;19;20051;-80
2022/06/29 14:09:00;;;;;;;2.33;1.65;;;;;;;;;;7394411;19;20019;-80
2022/06/29 14:11:25;;;;;;;4.03;1.70;;;;;;;;;;7389658;19;20011;-80
2022/06/29 14:13:51;;;;;;;3.65;1.95;;;;;;;;;;7390848;19;20013;-79
2022/06/29 14:16:22;;;;;;;2.50;1.55;;;;;;;;;;7388749;19;20011;-78
2022/06/29 14:18:51;;;;;;;2.90;1.80;;;;;;;;;;7385985;19;20022;-81
2022/06/29 14:21:17;;;;;;;2.20;1.67;;;;;;;;;;7387955;19;20013;-80
2022/06/29 14:23:42;;;;;;;2.00;1.40;;;;;;;;;;7389389;19;20011;-80
2022/06/29 14:26:08;;;;;;;1.70;1.50;;;;;;;;;;7384115;19;20010;-80
2022/06/29 14:28:33;;;;;;;3.38;1.55;;;;;;;;;;7385708;19;19991;-80
2022/06/29 14:30:59;;;;;;;1.58;1.48;;;;;;;;;;7391253;19;20014;-80
2022/06/29 14:33:24;;;;;;;2.25;1.90;;;;;;;;;;7399423;19;19999;-82
2022/06/29 14:35:50;;;;;;;2.03;1.70;;;;;;;;;;7389679;19;20025;-81
2022/06/29 14:38:21;;;;;;;5.57;1.70;;;;;;;;;;7393801;19;19998;-84
2022/06/29 14:40:46;;;;;;;3.13;1.85;;;;;;;;;;7398900;19;20006;-82
2022/06/29 14:43:11;;;;;;;2.10;1.63;;;;;;;;;;7392961;19;20023;-82
2022/06/29 14:45:39;;;;;;;1.55;1.45;;;;;;;;;;7389627;19;19998;-81
2022/06/29 14:48:05;;;;;;;2.38;1.55;;;;;;;;;;7396041;19;20031;-82
2022/06/29 14:50:31;;;;;;;2.25;1.50;;;;;;;;;;7396831;19;20030;-82
2022/06/29 14:52:58;;;;;;;1.63;1.52;;;;;;;;;;7392870;19;20062;-82
2022/06/29 14:55:24;;;;;;;2.13;1.52;;;;;;;;;;7390817;19;20002;-82
2022/06/29 14:57:50;;;;;;;2.45;1.48;;;;;;;;;;7396809;19;20010;-82
2022/06/29 15:01:01;;;;;;;1.92;1.40;;;;;;;;;;7394866;19;20037;-82
2022/06/29 15:03:28;;;;;;;3.78;1.45;;;;;;;;;;7388580;19;19994;-82
2022/06/29 15:06:08;;;;;;;1.83;1.27;;;;;;;;;;7390874;19;20031;-82
2022/06/29 15:08:48;;;;;;;2.90;1.50;;;;;;;;;;7390478;19;20461;-82
2022/06/29 15:11:14;;;;;;;2.88;1.60;;;;;;;;;;7394144;19;20364;-82
2022/06/29 15:13:43;;;;;;;2.28;1.20;;;;;;;;;;7390310;19;20018;-82